Time;durP1;ratioP1;P1;durP2;ratioP2;P2;SDS_P1;SDS_P2;PMS_P1;PMS_P2;Temp;Humidity;BMP_temperature;BMP_pressure;BME280_temperature;BME280_humidity;BME280_pressure;Samples;Min_cycle;Max_cycle;Signal;HPM_P1;HPM_P2
2023/02/12 00:00:07;;;;;;;7.15;3.08;;;;;;;7.56;100.00;102369.31;5004559;28;20030;-79
2023/02/12 00:02:40;;;;;;;9.20;3.73;;;;;;;7.56;100.00;102374.56;4996854;28;20026;-79
2023/02/12 00:05:07;;;;;;;6.72;3.65;;;;;;;7.61;100.00;102381.41;5003648;28;20463;-79
2023/02/12 00:07:32;;;;;;;7.63;3.50;;;;;;;7.65;100.00;102373.28;5005423;28;20041;-79
2023/02/12 00:09:58;;;;;;;5.68;3.00;;;;;;;7.64;100.00;102371.56;4988687;28;20033;-79
2023/02/12 00:12:24;;;;;;;8.88;2.90;;;;;;;7.65;100.00;102375.03;4988530;28;20062;-79
2023/02/12 00:14:50;;;;;;;9.98;2.83;;;;;;;7.61;100.00;102379.63;5007586;28;20127;-79
2023/02/12 00:17:15;;;;;;;4.35;2.60;;;;;;;7.57;100.00;102384.19;5010291;28;20088;-78
2023/02/12 00:19:41;;;;;;;5.45;2.90;;;;;;;7.51;100.00;102379.22;5005824;28;20036;-78
2023/02/12 00:22:07;;;;;;;2.78;2.17;;;;;;;7.44;100.00;102380.44;5008359;28;20498;-78
2023/02/12 00:24:33;;;;;;;3.63;2.72;;;;;;;7.38;100.00;102383.38;5046131;28;20044;-78
2023/02/12 00:26:59;;;;;;;3.88;2.10;;;;;;;7.32;100.00;102374.03;5048294;28;20033;-79
2023/02/12 00:29:24;;;;;;;4.40;2.30;;;;;;;7.30;100.00;102379.34;5028171;28;20029;-79
2023/02/12 00:31:50;;;;;;;4.82;2.58;;;;;;;7.26;100.00;102372.53;5012067;28;20037;-78
2023/02/12 00:34:16;;;;;;;4.78;2.35;;;;;;;7.25;100.00;102381.34;5048859;28;20556;-79
2023/02/12 00:36:42;;;;;;;7.78;2.50;;;;;;;7.25;100.00;102373.47;5024623;28;20036;-78
2023/02/12 00:39:09;;;;;;;6.28;2.28;;;;;;;7.27;100.00;102382.13;5032275;28;20036;-79
2023/02/12 00:41:35;;;;;;;4.65;2.67;;;;;;;7.22;100.00;102375.38;5013191;28;20037;-79
2023/02/12 00:44:01;;;;;;;5.85;3.20;;;;;;;7.20;100.00;102372.81;4997997;28;20496;-78
2023/02/12 00:46:27;;;;;;;10.52;3.40;;;;;;;7.18;100.00;102375.53;5032494;28;20127;-77
2023/02/12 00:48:53;;;;;;;6.63;3.45;;;;;;;7.17;100.00;102370.34;5049501;28;20037;-79
2023/02/12 00:51:19;;;;;;;7.75;4.40;;;;;;;7.17;100.00;102378.22;5030798;28;20043;-79
2023/02/12 00:53:45;;;;;;;7.47;4.25;;;;;;;7.17;100.00;102365.06;5051679;28;20052;-79
2023/02/12 00:56:12;;;;;;;7.78;5.05;;;;;;;7.18;100.00;102366.81;5032940;28;20120;-77
2023/02/12 00:58:37;;;;;;;7.50;5.68;;;;;;;7.16;100.00;102366.00;5023146;28;20481;-78
2023/02/12 01:01:05;;;;;;;11.32;6.22;;;;;;;7.15;100.00;102372.22;5031272;28;20037;-79
2023/02/12 01:03:31;;;;;;;13.07;6.80;;;;;;;7.13;100.00;102371.44;5013699;28;20079;-79
2023/02/12 01:05:58;;;;;;;13.15;6.15;;;;;;;7.13;100.00;102364.41;5014208;28;20091;-79
2023/02/12 01:08:24;;;;;;;13.18;6.57;;;;;;;7.14;100.00;102365.22;5048001;28;20103;-79
2023/02/12 01:10:58;;;;;;;9.73;6.07;;;;;;;7.13;100.00;102361.75;5031612;28;20497;-79
2023/02/12 01:13:25;;;;;;;10.07;6.03;;;;;;;7.08;100.00;102355.88;5026964;28;20029;-79
2023/02/12 01:16:11;;;;;;;10.13;6.35;;;;;;;7.12;100.00;102357.41;5028007;28;20505;-79
2023/02/12 01:18:37;;;;;;;8.48;6.10;;;;;;;7.09;100.00;102354.09;5048178;28;20032;-79
2023/02/12 01:21:22;;;;;;;12.98;6.00;;;;;;;7.13;100.00;102355.66;5048690;28;20036;-79
2023/02/12 01:23:49;;;;;;;9.07;6.28;;;;;;;7.10;100.00;102340.88;4987821;28;20403;-79
2023/02/12 01:26:16;;;;;;;8.15;5.50;;;;;;;7.12;100.00;102336.38;4996874;28;20044;-79
2023/02/12 01:28:44;;;;;;;8.30;5.32;;;;;;;7.14;100.00;102344.19;4988736;28;20038;-79
2023/02/12 01:31:13;;;;;;;10.43;6.13;;;;;;;7.12;100.00;102339.00;4998371;28;20061;-79
2023/02/12 01:33:38;;;;;;;8.70;5.63;;;;;;;7.13;100.00;102337.25;5001936;28;20156;-79
2023/02/12 01:36:05;;;;;;;8.95;5.97;;;;;;;7.15;100.00;102335.41;5001522;28;20104;-79
2023/02/12 01:38:31;;;;;;;10.55;6.32;;;;;;;7.15;100.00;102335.41;5003931;28;20025;-79
2023/02/12 01:41:10;;;;;;;8.77;5.60;;;;;;;7.16;100.00;102326.56;5001613;28;20541;-79
2023/02/12 01:43:38;;;;;;;11.60;6.07;;;;;;;7.16;100.00;102330.06;5021681;28;20088;-78
2023/02/12 01:46:05;;;;;;;12.98;5.85;;;;;;;7.18;100.00;102324.72;5000346;28;20042;-79
2023/02/12 01:48:51;;;;;;;8.65;5.38;;;;;;;7.21;100.00;102329.84;5001805;28;20544;-79
2023/02/12 01:51:20;;;;;;;10.32;6.07;;;;;;;7.22;100.00;102323.63;4941142;28;20133;-79
2023/02/12 01:53:52;;;;;;;9.43;4.80;;;;;;;7.25;100.00;102320.84;5004124;28;20038;-79
2023/02/12 01:56:19;;;;;;;6.57;5.55;;;;;;;7.25;100.00;102315.59;5013971;28;20042;-79
2023/02/12 01:58:49;;;;;;;7.47;5.65;;;;;;;7.24;100.00;102319.16;4993466;28;20072;-79
2023/02/12 02:01:23;;;;;;;9.40;5.35;;;;;;;7.27;100.00;102312.88;5004862;28;20161;-79
2023/02/12 02:03:53;;;;;;;13.38;4.88;;;;;;;7.28;100.00;102323.31;4985260;28;20398;-79
2023/02/12 02:06:26;;;;;;;6.72;5.00;;;;;;;7.28;100.00;102318.06;5001070;28;20042;-79
2023/02/12 02:08:53;;;;;;;9.40;5.75;;;;;;;7.27;100.00;102326.03;5002981;28;20087;-78
2023/02/12 02:17:17;;;;;;;12.55;5.10;;;;;;;7.19;100.00;102300.97;5002415;28;20038;-78
2023/02/12 02:19:57;;;;;;;6.93;5.63;;;;;;;7.21;100.00;102308.78;5017296;28;20041;-78
2023/02/12 02:22:36;;;;;;;8.32;4.95;;;;;;;7.18;100.00;102309.78;5010019;28;20034;-78
2023/02/12 02:25:17;;;;;;;10.27;4.80;;;;;;;7.16;100.00;102306.38;5028480;28;20548;-79
2023/02/12 02:27:58;;;;;;;7.10;5.35;;;;;;;7.18;100.00;102308.94;5043314;28;20032;-79
2023/02/12 02:30:31;;;;;;;5.43;4.55;;;;;;;7.17;100.00;102304.59;5006249;28;20389;-77
2023/02/12 02:33:09;;;;;;;6.63;5.28;;;;;;;7.13;100.00;102311.81;5039911;28;20397;-77
2023/02/12 02:35:42;;;;;;;8.02;5.65;;;;;;;7.12;100.00;102311.88;5036235;28;20037;-79
2023/02/12 02:38:11;;;;;;;8.88;4.85;;;;;;;7.06;100.00;102311.25;5042834;28;20072;-79
2023/02/12 02:40:48;;;;;;;8.25;5.30;;;;;;;7.09;100.00;102315.50;5027890;28;20366;-79
2023/02/12 02:43:20;;;;;;;8.48;6.13;;;;;;;7.10;100.00;102317.22;5025539;28;20033;-79
2023/02/12 02:45:58;;;;;;;11.77;5.55;;;;;;;7.12;100.00;102304.00;5028658;28;20031;-79
2023/02/12 02:48:32;;;;;;;9.32;5.32;;;;;;;7.13;100.00;102310.94;5010217;28;20029;-79
2023/02/12 02:51:07;;;;;;;10.40;5.82;;;;;;;7.17;100.00;102301.97;5043876;28;20025;-78
2023/02/12 02:53:46;;;;;;;7.50;5.80;;;;;;;7.18;100.00;102303.69;5013820;28;20076;-78
2023/02/12 02:56:17;;;;;;;6.97;5.93;;;;;;;7.22;100.00;102307.00;5028716;28;20061;-78
2023/02/12 02:58:51;;;;;;;7.55;6.30;;;;;;;7.25;100.00;102301.56;5029682;28;20029;-78
2023/02/12 03:01:24;;;;;;;6.97;6.27;;;;;;;7.29;100.00;102305.78;5019633;28;20033;-78
2023/02/12 03:03:57;;;;;;;6.82;6.18;;;;;;;7.30;100.00;102305.69;4997388;28;20496;-78
2023/02/12 03:06:28;;;;;;;11.70;7.05;;;;;;;7.33;100.00;102302.06;5047179;28;20033;-79
2023/02/12 03:08:59;;;;;;;10.52;7.25;;;;;;;7.37;100.00;102301.00;5026356;28;20092;-78
2023/02/12 03:11:29;;;;;;;8.70;7.07;;;;;;;7.36;100.00;102304.53;5026345;28;20032;-79
2023/02/12 03:14:10;;;;;;;7.95;7.07;;;;;;;7.36;100.00;102295.81;5005911;28;20033;-78
2023/02/12 03:16:47;;;;;;;10.60;6.93;;;;;;;7.36;100.00;102295.81;5044188;28;20040;-79
2023/02/12 03:19:19;;;;;;;9.43;6.55;;;;;;;7.34;100.00;102297.66;5046753;28;20101;-79
2023/02/12 03:21:58;;;;;;;6.90;6.20;;;;;;;7.35;100.00;102288.81;5045061;28;20044;-79
2023/02/12 03:25:08;;;;;;;7.43;6.72;;;;;;;7.38;100.00;102286.03;5043408;28;20036;-78
2023/02/12 03:27:49;;;;;;;7.38;6.38;;;;;;;7.39;100.00;102285.13;4982259;28;20680;-78
2023/02/12 03:30:15;;;;;;;8.38;6.68;;;;;;;7.36;100.00;102287.91;4982893;28;20109;-79
2023/02/12 03:33:19;;;;;;;8.77;6.10;;;;;;;7.33;100.00;102281.00;5004373;28;20048;-79
2023/02/12 03:36:05;;;;;;;10.15;6.00;;;;;;;7.28;100.00;102281.25;5017610;28;20041;-78
2023/02/12 03:38:45;;;;;;;15.18;6.10;;;;;;;7.27;100.00;102278.69;5041076;28;20639;-78
2023/02/12 03:41:21;;;;;;;5.72;5.22;;;;;;;7.23;100.00;102275.34;5022619;28;20125;-78
2023/02/12 03:44:02;;;;;;;;;;;;;;;7.14;100.00;102274.03;5012174;28;20066;-78
2023/02/12 03:46:41;;;;;;;9.50;5.22;;;;;;;7.17;100.00;102275.66;5020543;28;19964;-79
2023/02/12 03:49:31;;;;;;;5.80;5.30;;;;;;;7.16;100.00;102280.09;5052273;28;20037;-78
2023/02/12 03:51:58;;;;;;;10.60;5.85;;;;;;;7.14;100.00;102273.19;5014549;28;20033;-78
2023/02/12 03:54:25;;;;;;;11.93;5.53;;;;;;;7.12;100.00;102267.16;5029769;28;20025;-78
2023/02/12 03:57:04;;;;;;;5.60;5.03;;;;;;;7.13;100.00;102266.22;5031782;28;20037;-79
2023/02/12 03:59:30;;;;;;;7.55;5.03;;;;;;;7.07;100.00;102264.78;5045944;28;20029;-79
2023/02/12 04:01:58;;;;;;;6.45;4.93;;;;;;;7.10;100.00;102263.75;5030133;28;20037;-79
2023/02/12 04:04:25;;;;;;;7.93;5.63;;;;;;;7.14;100.00;102268.78;5010328;28;20028;-79
2023/02/12 04:06:52;;;;;;;5.80;5.22;;;;;;;7.16;100.00;102264.31;5031842;28;20481;-79
2023/02/12 04:09:20;;;;;;;7.13;5.90;;;;;;;7.17;100.00;102263.38;5050154;28;20040;-77
2023/02/12 04:12:09;;;;;;;8.98;5.60;;;;;;;7.17;100.00;102258.13;5013608;28;20040;-77
2023/02/12 04:14:48;;;;;;;6.32;5.43;;;;;;;7.24;100.00;102261.28;5024525;28;20043;-79
2023/02/12 04:17:39;;;;;;;8.68;6.30;;;;;;;7.29;100.00;102255.78;5048236;28;20124;-79
2023/02/12 04:20:23;;;;;;;7.22;5.18;;;;;;;7.28;100.00;102249.69;5028820;28;20036;-79
2023/02/12 04:23:16;;;;;;;6.13;5.53;;;;;;;7.26;100.00;102258.59;5051540;28;20068;-79
2023/02/12 04:25:52;;;;;;;9.10;5.25;;;;;;;7.26;100.00;102255.97;5042803;28;20029;-79
2023/02/12 04:28:42;;;;;;;6.10;5.53;;;;;;;7.27;100.00;102255.88;5022609;28;20124;-79
2023/02/12 04:31:19;;;;;;;8.75;5.38;;;;;;;7.31;100.00;102260.03;5043266;28;20040;-79
2023/02/12 04:33:53;;;;;;;14.95;5.53;;;;;;;7.34;100.00;102252.94;5043313;28;20516;-79
2023/02/12 04:36:28;;;;;;;6.53;4.85;;;;;;;7.36;100.00;102246.66;5030623;28;20679;-78
2023/02/12 04:39:01;;;;;;;5.15;4.65;;;;;;;7.37;100.00;102245.75;5033248;28;20060;-79
2023/02/12 04:41:29;;;;;;;8.82;4.97;;;;;;;7.35;100.00;102244.09;5047560;28;20041;-79
2023/02/12 04:43:55;;;;;;;6.07;4.78;;;;;;;7.31;100.00;102241.63;5041625;28;20045;-79
2023/02/12 04:46:20;;;;;;;8.90;4.70;;;;;;;7.30;100.00;102236.44;5016405;28;20397;-79
2023/02/12 04:48:56;;;;;;;8.48;5.70;;;;;;;7.35;100.00;102244.09;5033156;28;20063;-79
2023/02/12 04:51:22;;;;;;;6.15;4.82;;;;;;;7.31;100.00;102246.06;5045890;28;20036;-79
2023/02/12 04:53:49;;;;;;;5.97;4.78;;;;;;;7.33;100.00;102241.56;5016497;28;20456;-79
2023/02/12 04:56:15;;;;;;;9.57;6.10;;;;;;;7.31;100.00;102233.75;5037373;28;20073;-78
2023/02/12 04:58:42;;;;;;;9.40;5.75;;;;;;;7.33;100.00;102244.19;5022823;28;20048;-78
2023/02/12 05:01:09;;;;;;;7.90;6.03;;;;;;;7.36;100.00;102237.94;5028279;28;20041;-78
2023/02/12 05:03:35;;;;;;;13.75;7.68;;;;;;;7.37;100.00;102231.72;5006915;28;20377;-78
2023/02/12 05:06:06;;;;;;;12.35;7.32;;;;;;;7.41;100.00;102230.63;5043628;28;20091;-79
2023/02/12 05:08:32;;;;;;;8.05;7.25;;;;;;;7.39;100.00;102235.13;5025948;28;20037;-79
2023/02/12 05:11:06;;;;;;;11.98;7.95;;;;;;;7.42;100.00;102245.50;5029211;28;20098;-79
2023/02/12 05:13:33;;;;;;;11.68;8.77;;;;;;;7.40;100.00;102234.19;5026149;28;20048;-79
2023/02/12 05:15:58;;;;;;;12.40;7.78;;;;;;;7.42;100.00;102238.44;5046355;28;20497;-79
2023/02/12 05:18:25;;;;;;;10.52;8.05;;;;;;;7.45;100.00;102248.81;5042643;28;20047;-79
2023/02/12 05:20:58;;;;;;;9.40;7.70;;;;;;;7.51;100.00;102245.03;5032836;28;20115;-79
2023/02/12 05:23:30;;;;;;;10.63;7.15;;;;;;;7.54;100.00;102244.88;5040858;28;20515;-79
2023/02/12 05:26:01;;;;;;;9.88;7.80;;;;;;;7.56;100.00;102244.78;5032375;28;20051;-79
2023/02/12 05:28:28;;;;;;;11.05;6.85;;;;;;;7.53;100.00;102242.31;5012532;28;20489;-79
2023/02/12 05:30:54;;;;;;;7.18;5.82;;;;;;;7.49;100.00;102241.63;5044179;28;20036;-79
2023/02/12 05:33:20;;;;;;;12.07;4.72;;;;;;;7.48;100.00;102241.69;5025864;28;20047;-79
2023/02/12 05:35:46;;;;;;;6.97;3.92;;;;;;;7.46;100.00;102241.78;5025923;28;20485;-79
2023/02/12 05:38:11;;;;;;;5.57;3.80;;;;;;;7.45;100.00;102247.97;4996807;28;20128;-78
2023/02/12 05:40:39;;;;;;;6.63;3.70;;;;;;;7.44;100.00;102246.25;5030298;28;20033;-79
2023/02/12 05:43:04;;;;;;;5.82;3.35;;;;;;;7.42;100.00;102245.50;5048131;28;20037;-79
2023/02/12 05:45:32;;;;;;;6.22;2.70;;;;;;;7.39;100.00;102241.22;5015612;28;20025;-79
2023/02/12 05:47:57;;;;;;;4.72;2.88;;;;;;;7.36;100.00;102237.94;5029912;28;20647;-79
2023/02/12 05:50:23;;;;;;;5.68;2.65;;;;;;;7.39;100.00;102243.88;5044944;28;20036;-79
2023/02/12 05:53:01;;;;;;;6.60;3.23;;;;;;;7.42;100.00;102237.63;5024871;28;20033;-79
2023/02/12 05:55:27;;;;;;;4.68;2.40;;;;;;;7.39;100.00;102248.28;5046760;28;20022;-78
2023/02/12 05:57:53;;;;;;;5.88;2.55;;;;;;;7.38;100.00;102231.66;5025043;28;20041;-79
2023/02/12 06:00:19;;;;;;;4.30;2.63;;;;;;;7.39;100.00;102235.97;5029385;28;20035;-79
2023/02/12 06:02:45;;;;;;;6.25;2.83;;;;;;;7.41;100.00;102242.00;5046593;28;20043;-79
2023/02/12 06:05:11;;;;;;;3.85;2.85;;;;;;;7.39;100.00;102237.78;4999977;28;20036;-79
2023/02/12 06:07:37;;;;;;;8.15;3.38;;;;;;;7.40;100.00;102229.81;5011935;28;20041;-79
2023/02/12 06:10:03;;;;;;;3.47;2.80;;;;;;;7.42;100.00;102234.97;4997294;28;20033;-79
2023/02/12 06:12:29;;;;;;;4.97;2.70;;;;;;;7.43;100.00;102237.53;5046396;28;20037;-79
2023/02/12 06:14:54;;;;;;;3.47;2.67;;;;;;;7.42;100.00;102238.44;5049065;28;20078;-79
2023/02/12 06:17:20;;;;;;;5.38;2.40;;;;;;;7.44;100.00;102233.97;4980568;28;20037;-79
2023/02/12 06:19:46;;;;;;;5.22;2.58;;;;;;;7.44;100.00;102236.59;5026077;28;20432;-79
2023/02/12 06:22:12;;;;;;;4.47;2.72;;;;;;;7.45;100.00;102238.28;5042792;28;20060;-78
2023/02/12 06:24:38;;;;;;;5.25;2.75;;;;;;;7.44;100.00;102219.94;5027926;28;20374;-79
2023/02/12 06:27:03;;;;;;;5.65;2.55;;;;;;;7.40;100.00;102221.91;5048148;28;20033;-79
2023/02/12 06:29:29;;;;;;;5.97;2.97;;;;;;;7.40;100.00;102227.16;5033671;28;20029;-79
2023/02/12 06:31:55;;;;;;;4.75;2.60;;;;;;;7.41;100.00;102225.38;5013712;28;20451;-78
2023/02/12 06:34:20;;;;;;;4.20;2.45;;;;;;;7.41;100.00;102225.38;5043065;28;20049;-79
2023/02/12 06:36:46;;;;;;;5.90;2.60;;;;;;;7.39;100.00;102219.34;5050553;28;20033;-79
2023/02/12 06:39:14;;;;;;;4.13;2.00;;;;;;;7.42;100.00;102216.56;5031799;28;20977;-78
2023/02/12 06:41:40;;;;;;;3.67;2.28;;;;;;;7.37;100.00;102219.44;5021364;28;20040;-78
2023/02/12 06:44:07;;;;;;;5.30;2.40;;;;;;;7.38;100.00;102213.22;5008168;28;20064;-79
2023/02/12 06:46:33;;;;;;;3.55;2.78;;;;;;;7.39;100.00;102212.28;5023564;28;20041;-78
2023/02/12 06:49:00;;;;;;;5.68;2.13;;;;;;;7.38;100.00;102215.00;5013831;28;20107;-79
2023/02/12 06:51:28;;;;;;;5.50;2.50;;;;;;;7.39;100.00;102217.56;5022315;28;20576;-79
2023/02/12 06:53:54;;;;;;;8.00;2.38;;;;;;;7.36;100.00;102215.09;5032424;28;20039;-79
2023/02/12 06:56:22;;;;;;;11.32;2.70;;;;;;;7.36;100.00;102212.47;5012254;28;20045;-79
2023/02/12 06:58:56;;;;;;;4.20;2.50;;;;;;;7.37;100.00;102211.53;5013093;28;20037;-79
2023/02/12 07:01:24;;;;;;;3.75;2.33;;;;;;;7.37;100.00;102210.69;5046711;28;20576;-79
2023/02/12 07:03:56;;;;;;;6.93;2.53;;;;;;;7.37;100.00;102214.19;5011109;28;20041;-79
2023/02/12 07:06:23;;;;;;;9.40;2.88;;;;;;;7.35;100.00;102217.78;5001943;28;20111;-79
2023/02/12 07:08:49;;;;;;;5.85;2.20;;;;;;;7.35;100.00;102217.78;5039305;28;20068;-79
2023/02/12 07:11:16;;;;;;;4.72;1.90;;;;;;;7.36;100.00;102222.16;5048932;28;20033;-79
2023/02/12 07:13:43;;;;;;;6.15;1.95;;;;;;;7.34;100.00;102221.38;5037900;28;20029;-79
2023/02/12 07:16:11;;;;;;;3.97;2.30;;;;;;;7.35;100.00;102226.53;5029511;28;20033;-79
2023/02/12 07:18:38;;;;;;;2.90;2.00;;;;;;;7.34;100.00;102227.50;5031090;28;20041;-79
2023/02/12 07:21:06;;;;;;;4.72;2.08;;;;;;;7.36;100.00;102230.03;5028429;28;20032;-79
2023/02/12 07:23:33;;;;;;;4.75;1.70;;;;;;;7.34;100.00;102227.50;5030766;28;20049;-79
2023/02/12 07:26:04;;;;;;;2.13;1.50;;;;;;;7.36;100.00;102233.50;5048009;28;20485;-77
2023/02/12 07:28:32;;;;;;;4.90;1.88;;;;;;;7.35;100.00;102229.19;5046596;28;20033;-78
2023/02/12 07:30:59;;;;;;;5.13;1.65;;;;;;;7.35;100.00;102223.06;5029309;28;20065;-79
2023/02/12 07:33:25;;;;;;;3.92;2.13;;;;;;;7.35;100.00;102225.69;5049889;28;20040;-79
2023/02/12 07:35:50;;;;;;;9.35;1.98;;;;;;;7.32;100.00;102227.56;5029667;28;20465;-79
2023/02/12 07:38:16;;;;;;;4.15;2.00;;;;;;;7.33;100.00;102231.03;5035526;28;20118;-79
2023/02/12 07:40:42;;;;;;;3.85;1.77;;;;;;;7.31;100.00;102228.47;5027237;28;20025;-79
2023/02/12 07:43:08;;;;;;;4.03;1.88;;;;;;;7.32;100.00;102237.22;5033959;28;20090;-79
2023/02/12 07:45:35;;;;;;;6.97;1.95;;;;;;;7.31;100.00;102232.91;5029672;28;20032;-79
2023/02/12 07:48:01;;;;;;;4.57;2.00;;;;;;;7.34;100.00;102230.13;5029268;28;20024;-79
2023/02/12 07:50:27;;;;;;;6.28;2.35;;;;;;;7.34;100.00;102235.38;5037505;28;20408;-78
2023/02/12 07:52:52;;;;;;;3.63;1.55;;;;;;;7.32;100.00;102224.94;5049010;28;20040;-79
2023/02/12 07:55:18;;;;;;;4.20;1.48;;;;;;;7.35;100.00;102229.19;5033421;28;20481;-79
2023/02/12 07:57:44;;;;;;;6.05;1.90;;;;;;;7.36;100.00;102237.94;5019375;28;20394;-78
2023/02/12 08:00:10;;;;;;;4.72;2.58;;;;;;;7.38;100.00;102238.69;4966985;28;20104;-79
2023/02/12 08:02:39;;;;;;;5.97;1.48;;;;;;;7.37;100.00;102237.00;5034315;28;20382;-79
2023/02/12 08:05:05;;;;;;;5.13;1.50;;;;;;;7.35;100.00;102244.97;5031789;28;20029;-80
2023/02/12 08:07:31;;;;;;;10.02;1.83;;;;;;;7.36;100.00;102248.44;5047511;28;20115;-79
2023/02/12 08:09:57;;;;;;;3.63;1.38;;;;;;;7.37;100.00;102256.25;5048605;28;20022;-79
2023/02/12 08:12:22;;;;;;;6.88;1.25;;;;;;;7.39;100.00;102248.28;5031585;28;20060;-79
2023/02/12 08:14:48;;;;;;;3.10;1.45;;;;;;;7.41;100.00;102251.69;4997804;28;20021;-78
2023/02/12 08:17:14;;;;;;;3.28;1.30;;;;;;;7.39;100.00;102250.94;5050097;28;20049;-79
2023/02/12 08:19:40;;;;;;;5.30;1.23;;;;;;;7.40;100.00;102255.25;5001183;28;20047;-79
2023/02/12 08:22:06;;;;;;;8.80;1.30;;;;;;;7.37;100.00;102242.25;5044821;28;20482;-79
2023/02/12 08:24:32;;;;;;;4.25;1.02;;;;;;;7.37;100.00;102244.88;5015759;28;20041;-79
2023/02/12 08:26:58;;;;;;;3.00;1.10;;;;;;;7.37;100.00;102252.78;5012620;28;20484;-79
2023/02/12 08:29:30;;;;;;;2.67;1.27;;;;;;;7.42;100.00;102254.22;5012641;28;20040;-78
2023/02/12 08:31:58;;;;;;;5.05;1.30;;;;;;;7.36;100.00;102254.53;5030286;28;20029;-77
2023/02/12 08:34:26;;;;;;;4.72;1.10;;;;;;;7.38;100.00;102257.97;5029752;28;20485;-79
2023/02/12 08:36:54;;;;;;;3.10;1.30;;;;;;;7.39;100.00;102258.81;5029641;28;20087;-79
2023/02/12 08:39:22;;;;;;;7.03;1.60;;;;;;;7.41;100.00;102257.81;5049615;28;20034;-78
2023/02/12 08:41:48;;;;;;;6.28;1.42;;;;;;;7.42;100.00;102254.22;5015227;28;20037;-78
2023/02/12 08:44:14;;;;;;;5.72;1.60;;;;;;;7.46;100.00;102257.56;5029537;28;20033;-78
2023/02/12 08:46:49;;;;;;;8.90;1.45;;;;;;;7.49;100.00;102254.78;5042536;28;20044;-78
2023/02/12 08:49:18;;;;;;;5.57;1.30;;;;;;;7.49;100.00;102248.66;5008375;28;20607;-78
2023/02/12 08:51:47;;;;;;;5.38;1.20;;;;;;;7.51;100.00;102249.44;5029465;28;20033;-79
2023/02/12 08:54:17;;;;;;;5.00;1.60;;;;;;;7.53;100.00;102242.31;5012245;28;21903;-79
2023/02/12 08:56:45;;;;;;;7.00;1.40;;;;;;;7.55;100.00;102250.97;5032184;28;21004;-79
2023/02/12 08:59:13;;;;;;;4.30;1.42;;;;;;;7.55;100.00;102257.09;5029086;28;20485;-79
2023/02/12 09:01:42;;;;;;;4.80;1.42;;;;;;;7.54;100.00;102252.75;5048179;28;20112;-79
2023/02/12 09:04:16;;;;;;;3.55;1.27;;;;;;;7.55;100.00;102259.72;5029950;28;20095;-79
2023/02/12 09:06:42;;;;;;;4.25;1.27;;;;;;;7.54;100.00;102260.66;5045851;28;20385;-79
2023/02/12 09:09:08;;;;;;;5.68;1.42;;;;;;;7.57;100.00;102257.88;4995928;28;20040;-79
2023/02/12 09:11:34;;;;;;;6.65;1.52;;;;;;;7.62;100.00;102255.00;5013506;28;20041;-79
2023/02/12 09:14:02;;;;;;;11.77;2.13;;;;;;;7.67;100.00;102252.13;5015540;28;20036;-79
2023/02/12 09:16:30;;;;;;;3.90;1.58;;;;;;;7.71;100.00;102253.66;5047269;28;20044;-79
2023/02/12 09:18:56;;;;;;;4.30;1.80;;;;;;;7.74;100.00;102261.38;5046236;28;20036;-79
2023/02/12 09:21:22;;;;;;;4.13;1.52;;;;;;;7.74;100.00;102261.38;5041903;28;20036;-79
2023/02/12 09:23:49;;;;;;;5.10;1.27;;;;;;;7.75;100.00;102252.56;5021990;28;20071;-79
2023/02/12 09:26:19;;;;;;;3.15;1.60;;;;;;;7.78;100.00;102252.41;4997557;28;20033;-77
2023/02/12 09:28:46;;;;;;;6.65;2.20;;;;;;;7.78;100.00;102255.03;5012180;28;20123;-77
2023/02/12 09:31:15;;;;;;;13.25;2.13;;;;;;;7.79;100.00;102253.25;5021732;28;20038;-79
2023/02/12 09:33:41;;;;;;;2.80;1.15;;;;;;;7.78;100.00;102249.78;5014589;28;20500;-79
2023/02/12 09:36:10;;;;;;;4.05;1.30;;;;;;;7.82;100.00;102248.69;5030841;28;20024;-79
2023/02/12 09:38:37;;;;;;;6.13;2.25;;;;;;;7.82;100.00;102245.19;5047640;28;20071;-79
2023/02/12 09:41:28;;;;;;;2.40;1.10;;;;;;;7.85;100.00;102244.19;5028856;28;20501;-80
2023/02/12 09:44:08;;;;;;;6.20;1.63;;;;;;;7.86;100.00;102235.34;5048412;28;20481;-79
2023/02/12 09:46:55;;;;;;;5.38;1.10;;;;;;;7.87;100.00;102230.00;5045395;28;20041;-77
2023/02/12 09:49:38;;;;;;;6.97;1.60;;;;;;;7.87;100.00;102229.16;5031471;28;20503;-76
2023/02/12 09:52:08;;;;;;;6.25;1.20;;;;;;;7.88;100.00;102222.97;5027189;28;20037;-79
2023/02/12 09:54:38;;;;;;;4.38;1.08;;;;;;;7.90;100.00;102214.03;5044276;28;20037;-80
2023/02/12 09:57:18;;;;;;;5.55;1.40;;;;;;;7.94;100.00;102222.63;5048984;28;20045;-80
2023/02/12 09:59:48;;;;;;;8.05;1.50;;;;;;;7.96;100.00;102214.66;4985185;28;20362;-80
2023/02/12 10:02:16;;;;;;;6.28;1.50;;;;;;;8.01;100.00;102221.34;5008031;28;20059;-80
2023/02/12 10:04:45;;;;;;;8.02;1.67;;;;;;;8.04;100.00;102221.19;5029827;28;20108;-78
2023/02/12 10:07:43;;;;;;;5.43;1.30;;;;;;;8.07;100.00;102218.38;5045006;28;20167;-77
2023/02/12 10:10:49;;;;;;;8.25;2.38;;;;;;;8.10;100.00;102219.16;5052447;28;20056;-80
2023/02/12 10:13:36;;;;;;;3.72;1.25;;;;;;;8.07;100.00;102221.00;5030831;28;20120;-80
2023/02/12 10:16:09;;;;;;;6.13;2.10;;;;;;;8.03;100.00;102208.97;5016455;28;20495;-80
2023/02/12 10:19:03;;;;;;;4.63;1.48;;;;;;;8.04;100.00;102212.44;5045646;28;20064;-80
2023/02/12 10:21:37;;;;;;;5.82;1.48;;;;;;;8.05;100.00;102215.00;5026840;28;20507;-80
2023/02/12 10:24:24;;;;;;;4.20;1.20;;;;;;;8.06;100.00;102211.44;5024594;28;20064;-80
2023/02/12 10:26:56;;;;;;;6.88;1.77;;;;;;;8.04;100.00;102208.00;5022140;28;20420;-80
2023/02/12 10:29:37;;;;;;;7.57;2.42;;;;;;;8.06;100.00;102200.88;5048971;28;20040;-80
2023/02/12 10:32:13;;;;;;;5.90;1.33;;;;;;;8.06;100.00;102200.88;5026610;28;20037;-80
2023/02/12 10:34:41;;;;;;;9.45;1.33;;;;;;;8.11;100.00;102205.03;5046905;28;20043;-80
2023/02/12 10:37:25;;;;;;;9.32;1.58;;;;;;;8.13;100.00;102208.44;5026731;28;20036;-80
2023/02/12 10:39:58;;;;;;;3.20;1.67;;;;;;;8.15;100.00;102199.56;5018789;28;20047;-80
2023/02/12 10:42:39;;;;;;;7.70;1.60;;;;;;;8.21;100.00;102200.97;5023767;28;20028;-80
2023/02/12 10:45:11;;;;;;;5.95;1.40;;;;;;;8.22;100.00;102200.03;5010778;28;20025;-80
2023/02/12 10:47:37;;;;;;;7.28;1.45;;;;;;;8.24;100.00;102202.59;5024331;28;20051;-80
2023/02/12 10:50:20;;;;;;;6.15;1.85;;;;;;;8.28;100.00;102201.50;5048182;28;20033;-80
2023/02/12 10:52:53;;;;;;;6.47;1.50;;;;;;;8.30;100.00;102202.25;5046717;28;20036;-80
2023/02/12 10:55:22;;;;;;;7.40;1.13;;;;;;;8.35;100.00;102209.88;5038244;28;20116;-80
2023/02/12 10:57:48;;;;;;;6.30;1.65;;;;;;;8.31;100.00;102204.78;5038133;28;20048;-80
2023/02/12 11:00:32;;;;;;;4.70;1.30;;;;;;;8.40;100.00;102206.06;5029335;28;20108;-80
2023/02/12 11:02:59;;;;;;;6.65;1.48;;;;;;;8.43;100.00;102203.28;5007071;28;20501;-80
2023/02/12 11:05:28;;;;;;;4.85;1.27;;;;;;;8.40;100.00;102198.16;5041549;28;20115;-81
2023/02/12 11:07:56;;;;;;;8.77;2.25;;;;;;;8.36;100.00;102201.91;5026782;28;20106;-80
2023/02/12 11:10:40;;;;;;;7.13;1.52;;;;;;;8.40;100.00;102202.59;4988467;28;20393;-80
2023/02/12 11:13:26;;;;;;;5.03;1.52;;;;;;;8.37;100.00;102195.72;5032098;28;20104;-80
2023/02/12 11:15:53;;;;;;;;;;;;;;;8.26;100.00;102196.31;5039858;28;20040;-80
2023/02/12 11:18:31;;;;;;;9.65;2.03;;;;;;;8.31;100.00;102190.78;5012904;28;19921;-81
2023/02/12 11:20:59;;;;;;;4.38;1.60;;;;;;;8.31;100.00;102186.34;5029404;28;20032;-80
2023/02/12 11:23:37;;;;;;;4.55;1.70;;;;;;;8.36;100.00;102195.78;5038253;28;20045;-80
2023/02/12 11:26:19;;;;;;;7.15;1.58;;;;;;;8.35;100.00;102194.06;5027744;28;20033;-80
2023/02/12 11:29:32;;;;;;;5.32;1.58;;;;;;;8.34;100.00;102189.75;5013015;28;20037;-80
2023/02/12 11:32:01;;;;;;;7.07;1.50;;;;;;;8.37;100.00;102192.22;4985256;28;20041;-80
2023/02/12 11:34:28;;;;;;;3.90;1.27;;;;;;;8.38;100.00;102183.38;5017218;28;20390;-81
2023/02/12 11:36:55;;;;;;;3.88;1.35;;;;;;;8.44;100.00;102188.31;5046793;28;20036;-80
2023/02/12 11:39:28;;;;;;;6.88;1.58;;;;;;;8.42;100.00;102188.41;5021520;28;20108;-81
2023/02/12 11:41:58;;;;;;;7.05;1.65;;;;;;;8.38;100.00;102180.72;5035536;28;20029;-81
2023/02/12 11:44:26;;;;;;;3.72;1.25;;;;;;;8.42;100.00;102183.13;5013485;28;20025;-80
2023/02/12 11:47:07;;;;;;;7.07;1.83;;;;;;;8.44;100.00;102178.59;4980960;28;20452;-78